createdAt,value
2018-03-29T00:00:18.670Z,7.40
2018-03-29T00:02:46.157Z,7.40
2018-03-29T00:05:14.436Z,7.30
2018-03-29T00:07:42.687Z,7.30
2018-03-29T00:10:10.206Z,7.30
2018-03-29T00:12:37.698Z,7.30
2018-03-29T00:15:05.211Z,7.30
2018-03-29T00:17:32.703Z,7.30
2018-03-29T00:20:00.193Z,7.30
2018-03-29T00:22:28.469Z,7.20
2018-03-29T00:24:56.721Z,7.10
2018-03-29T00:27:24.238Z,7.10
2018-03-29T00:29:51.734Z,7.10
2018-03-29T00:32:19.245Z,7.10
2018-03-29T00:34:46.738Z,7.00
2018-03-29T00:37:14.229Z,7.00
2018-03-29T00:39:42.522Z,7.00
2018-03-29T00:42:10.777Z,7.00
2018-03-29T00:44:38.282Z,7.00
2018-03-29T00:47:06.625Z,7.00
2018-03-29T00:49:34.906Z,7.00
2018-03-29T00:52:03.157Z,7.00
2018-03-29T00:54:30.650Z,6.90
2018-03-29T00:56:58.170Z,6.90
2018-03-29T00:59:25.661Z,7.00
2018-03-29T01:01:53.937Z,6.90
2018-03-29T01:04:22.201Z,6.80
2018-03-29T01:06:50.477Z,6.70
2018-03-29T01:09:18.737Z,6.70
2018-03-29T01:11:46.245Z,6.70
2018-03-29T01:14:13.741Z,6.70
2018-03-29T01:16:41.231Z,6.60
2018-03-29T01:19:09.506Z,6.60
2018-03-29T01:21:37.770Z,6.50
2018-03-29T01:24:05.282Z,6.40
2018-03-29T01:26:32.766Z,6.30
2018-03-29T01:29:00.281Z,6.20
2018-03-29T01:31:27.773Z,6.10
2018-03-29T01:33:55.289Z,6.00
2018-03-29T01:36:23.541Z,5.70
2018-03-29T01:38:51.075Z,5.80
2018-03-29T01:41:18.561Z,5.70
2018-03-29T01:43:46.050Z,5.50
2018-03-29T01:46:13.561Z,5.40
2018-03-29T01:48:41.049Z,5.40
2018-03-29T01:51:09.325Z,5.30
2018-03-29T01:53:37.582Z,5.30
2018-03-29T01:56:05.073Z,5.20
2018-03-29T01:58:32.586Z,5.20
2018-03-29T02:01:00.098Z,5.20
2018-03-29T02:03:27.597Z,5.20
2018-03-29T02:05:55.084Z,5.20
2018-03-29T02:08:23.361Z,5.30
2018-03-29T02:10:51.617Z,5.30
2018-03-29T02:13:19.893Z,5.30
2018-03-29T02:15:47.391Z,5.30
2018-03-29T02:18:14.882Z,5.30
2018-03-29T02:20:42.393Z,5.30
2018-03-29T02:23:10.700Z,5.40
2018-03-29T02:25:38.944Z,5.40
2018-03-29T02:28:07.202Z,5.40
2018-03-29T02:30:34.707Z,5.40
2018-03-29T02:33:02.199Z,5.40
2018-03-29T02:35:29.714Z,5.40
2018-03-29T02:37:57.197Z,5.40
2018-03-29T02:40:24.685Z,5.40
2018-03-29T02:42:52.190Z,5.40
2018-03-29T02:45:19.678Z,5.40
2018-03-29T02:47:47.186Z,5.40
2018-03-29T02:50:15.434Z,5.40
2018-03-29T02:52:42.951Z,5.40
2018-03-29T02:55:10.464Z,5.40
2018-03-29T02:57:37.970Z,5.40
2018-03-29T03:00:05.458Z,5.40
2018-03-29T03:02:32.985Z,5.40
2018-03-29T03:05:00.465Z,5.40
2018-03-29T03:07:27.950Z,5.50
2018-03-29T03:09:55.458Z,5.50
2018-03-29T03:12:22.949Z,5.50
2018-03-29T03:14:50.454Z,5.50
2018-03-29T03:17:18.705Z,5.50
2018-03-29T03:19:46.213Z,5.50
2018-03-29T03:22:13.701Z,5.50
2018-03-29T03:24:41.205Z,5.50
2018-03-29T03:27:09.454Z,5.50
2018-03-29T03:29:37.740Z,5.60
2018-03-29T03:32:05.225Z,5.50
2018-03-29T03:34:32.709Z,5.60
2018-03-29T03:37:00.216Z,5.60
2018-03-29T03:39:28.464Z,5.60
2018-03-29T03:41:55.972Z,5.60
2018-03-29T03:44:23.453Z,5.60
2018-03-29T03:46:50.933Z,5.60
2018-03-29T03:49:18.441Z,5.60
2018-03-29T03:51:46.688Z,5.60
2018-03-29T03:54:14.193Z,5.60
2018-03-29T03:56:41.681Z,5.60
2018-03-29T03:59:09.192Z,5.60
2018-03-29T04:01:36.677Z,5.60
2018-03-29T04:04:04.156Z,5.60
2018-03-29T04:06:31.662Z,5.60
2018-03-29T04:08:59.912Z,5.60
2018-03-29T04:11:27.421Z,5.60
2018-03-29T04:13:54.904Z,5.60
2018-03-29T04:16:22.388Z,5.60
2018-03-29T04:18:49.892Z,5.60
2018-03-29T04:21:17.374Z,5.60
2018-03-29T04:23:44.885Z,5.60
2018-03-29T04:26:13.136Z,5.60
2018-03-29T04:28:40.646Z,5.60
2018-03-29T04:31:08.137Z,5.60
2018-03-29T04:33:35.621Z,5.60
2018-03-29T04:36:03.900Z,5.60
2018-03-29T04:38:32.157Z,5.50
2018-03-29T04:40:59.657Z,5.50
2018-03-29T04:43:27.136Z,5.60
2018-03-29T04:45:54.645Z,5.50
2018-03-29T04:48:22.129Z,5.60
2018-03-29T04:50:49.613Z,5.50
2018-03-29T04:53:17.121Z,5.50
2018-03-29T04:55:45.372Z,5.60
2018-03-29T04:58:12.872Z,5.60
2018-03-29T05:00:41.121Z,5.60
2018-03-29T05:03:08.625Z,5.60
2018-03-29T05:05:36.111Z,5.60
2018-03-29T05:08:03.593Z,5.60
2018-03-29T05:10:31.098Z,5.60
2018-03-29T05:12:58.584Z,5.60
2018-03-29T05:15:26.088Z,5.60
2018-03-29T05:17:54.332Z,5.60
2018-03-29T05:20:23.349Z,5.60
2018-03-29T05:22:51.596Z,5.60
2018-03-29T05:25:19.633Z,5.60
2018-03-29T05:27:52.711Z,5.60
2018-03-29T05:30:20.209Z,5.60
2018-03-29T05:32:47.710Z,5.70
2018-03-29T05:35:15.968Z,5.70
2018-03-29T05:37:44.241Z,5.70
2018-03-29T05:40:11.778Z,5.70
2018-03-29T05:42:39.233Z,5.70
2018-03-29T05:45:06.742Z,5.70
2018-03-29T05:47:34.989Z,5.70
2018-03-29T05:50:02.497Z,5.70
2018-03-29T05:52:29.983Z,5.70
2018-03-29T05:54:57.493Z,5.70
2018-03-29T05:57:25.741Z,5.70
2018-03-29T05:59:53.244Z,5.70
2018-03-29T06:02:20.725Z,5.80
2018-03-29T06:04:48.209Z,5.80
2018-03-29T06:07:15.717Z,5.70
2018-03-29T06:09:43.200Z,5.70
2018-03-29T06:12:10.702Z,5.70
2018-03-29T06:14:44.949Z,5.70
2018-03-29T06:17:18.120Z,5.70
2018-03-29T06:19:46.373Z,5.80
2018-03-29T06:22:13.884Z,5.80
2018-03-29T06:24:41.369Z,5.90
2018-03-29T06:27:08.880Z,5.80
2018-03-29T06:29:36.378Z,5.90
2018-03-29T06:32:03.860Z,5.90
2018-03-29T06:34:31.361Z,5.90
2018-03-29T06:36:58.849Z,5.90
2018-03-29T06:39:26.348Z,5.90
2018-03-29T06:41:53.837Z,5.90
2018-03-29T06:44:21.345Z,5.90
2018-03-29T06:46:48.824Z,6.00
2018-03-29T06:49:16.313Z,6.00
2018-03-29T06:51:43.818Z,6.00
2018-03-29T06:54:11.301Z,6.00
2018-03-29T06:56:39.572Z,6.00
2018-03-29T06:59:07.057Z,6.00
2018-03-29T07:01:34.571Z,6.00
2018-03-29T07:04:02.069Z,6.00
2018-03-29T07:06:30.321Z,6.00
2018-03-29T07:08:57.836Z,6.00
2018-03-29T07:11:25.321Z,6.00
2018-03-29T07:13:52.825Z,6.10
2018-03-29T07:16:20.309Z,6.10
2018-03-29T07:18:47.813Z,6.10
2018-03-29T07:21:15.300Z,6.10
2018-03-29T07:23:42.797Z,6.10
2018-03-29T07:26:10.301Z,6.10
2018-03-29T07:28:38.549Z,6.20
2018-03-29T07:31:06.053Z,6.20
2018-03-29T07:33:33.533Z,6.20
2018-03-29T07:36:01.037Z,6.30
2018-03-29T07:38:28.517Z,6.30
2018-03-29T07:40:56.000Z,6.30
2018-03-29T07:43:23.508Z,6.40
2018-03-29T07:45:50.989Z,6.40
2018-03-29T07:48:19.265Z,6.40
2018-03-29T07:50:47.516Z,6.40
2018-03-29T07:53:15.079Z,6.30
2018-03-29T07:55:42.537Z,6.40
2018-03-29T07:58:10.789Z,6.40
2018-03-29T08:00:38.292Z,6.40
2018-03-29T08:03:06.541Z,6.50
2018-03-29T08:05:34.050Z,6.50
2018-03-29T08:08:01.537Z,6.50
2018-03-29T08:10:29.016Z,6.60
2018-03-29T08:12:57.286Z,6.60
2018-03-29T08:15:25.532Z,6.60
2018-03-29T08:17:53.038Z,6.70
2018-03-29T08:20:21.293Z,6.80
2018-03-29T08:22:48.781Z,6.80
2018-03-29T08:25:17.052Z,6.80
2018-03-29T08:27:45.302Z,6.90
2018-03-29T08:30:12.810Z,6.90
2018-03-29T08:32:40.288Z,7.00
2018-03-29T08:35:07.772Z,7.10
2018-03-29T08:37:35.279Z,7.20
2018-03-29T08:40:03.530Z,7.30
2018-03-29T08:42:31.036Z,7.30
2018-03-29T08:44:58.524Z,7.30
2018-03-29T08:47:26.005Z,7.30
2018-03-29T08:49:54.277Z,7.40
2018-03-29T08:52:21.765Z,7.40
2018-03-29T08:54:49.273Z,7.50
2018-03-29T08:57:16.756Z,7.50
2018-03-29T08:59:44.265Z,7.80
2018-03-29T09:02:11.757Z,7.90
2018-03-29T09:04:39.249Z,8.00
2018-03-29T09:07:07.525Z,8.00
2018-03-29T09:09:35.775Z,8.10
2018-03-29T09:12:03.278Z,8.10
2018-03-29T09:14:30.765Z,8.20
2018-03-29T09:16:58.244Z,8.30
2018-03-29T09:19:25.761Z,8.40
2018-03-29T09:21:53.245Z,8.50
2018-03-29T09:24:20.757Z,8.80
2018-03-29T09:26:48.262Z,8.90
2018-03-29T09:29:15.749Z,9.20
2018-03-29T09:31:44.021Z,9.90
2018-03-29T09:34:11.520Z,9.90
2018-03-29T09:36:39.029Z,9.80
2018-03-29T09:39:06.513Z,9.40
2018-03-29T09:41:34.854Z,8.60
2018-03-29T09:44:02.286Z,8.60
2018-03-29T09:46:29.775Z,8.50
2018-03-29T09:48:57.278Z,8.40
2018-03-29T09:51:24.761Z,8.40
2018-03-29T09:53:52.268Z,8.40
2018-03-29T09:56:20.512Z,8.40
2018-03-29T09:58:48.021Z,8.30
2018-03-29T10:01:15.501Z,8.30
2018-03-29T10:03:45.935Z,8.20
2018-03-29T10:06:28.321Z,8.20
2018-03-29T10:08:55.801Z,8.10
2018-03-29T10:11:23.307Z,8.20
2018-03-29T10:13:51.556Z,8.10
2018-03-29T10:16:19.061Z,8.10
2018-03-29T10:18:46.545Z,8.10
2018-03-29T10:21:14.038Z,8.10
2018-03-29T10:23:41.544Z,8.20
2018-03-29T10:26:09.029Z,8.30
2018-03-29T10:28:37.493Z,8.30
2018-03-29T10:31:04.991Z,8.30
2018-03-29T10:33:32.497Z,8.30
2018-03-29T10:35:59.990Z,8.40
2018-03-29T10:38:27.497Z,8.40
2018-03-29T10:40:55.751Z,8.40
2018-03-29T10:43:23.237Z,8.40
2018-03-29T10:45:51.505Z,8.40
2018-03-29T10:48:19.760Z,8.30
2018-03-29T10:50:47.265Z,8.30
2018-03-29T10:53:14.752Z,8.30
2018-03-29T10:55:42.257Z,8.30
2018-03-29T10:58:10.510Z,8.40
2018-03-29T11:00:37.988Z,8.40
2018-03-29T11:03:06.261Z,8.70
2018-03-29T11:05:34.504Z,9.70
2018-03-29T11:08:02.009Z,9.60
2018-03-29T11:10:30.256Z,9.90
2018-03-29T11:12:57.768Z,9.90
2018-03-29T11:15:25.261Z,12.80
2018-03-29T11:17:52.773Z,15.80
2018-03-29T11:20:20.256Z,18.50
2018-03-29T11:22:47.740Z,20.40
2018-03-29T11:25:15.246Z,21.50
2018-03-29T11:27:42.735Z,22.10
2018-03-29T11:30:10.242Z,21.10
2018-03-29T11:32:38.492Z,22.20
2018-03-29T11:35:06.005Z,22.10
2018-03-29T11:37:33.497Z,20.80
2018-03-29T11:40:00.991Z,19.40
2018-03-29T11:42:29.270Z,15.00
2018-03-29T11:44:57.555Z,13.30
2018-03-29T11:47:25.064Z,13.30
2018-03-29T11:49:52.555Z,12.50
2018-03-29T11:52:20.831Z,12.60
2018-03-29T11:54:49.085Z,12.30
2018-03-29T11:57:16.601Z,12.40
2018-03-29T11:59:44.089Z,11.90
2018-03-29T12:02:11.577Z,11.70
2018-03-29T12:04:39.857Z,11.00
2018-03-29T12:07:08.104Z,11.80
2018-03-29T12:09:35.617Z,11.70
2018-03-29T12:12:03.110Z,13.00
2018-03-29T12:14:30.625Z,14.40
2018-03-29T12:16:58.873Z,15.40
2018-03-29T12:19:26.365Z,15.40
2018-03-29T12:21:53.873Z,15.20
2018-03-29T12:24:21.385Z,15.20
2018-03-29T12:26:48.873Z,14.60
2018-03-29T12:29:16.361Z,13.80
2018-03-29T12:31:45.377Z,17.30
2018-03-29T12:34:13.626Z,19.00
2018-03-29T12:36:41.134Z,18.90
2018-03-29T12:39:08.616Z,20.30
2018-03-29T12:41:36.125Z,21.30
2018-03-29T12:44:04.381Z,21.40
2018-03-29T12:46:31.892Z,21.40
2018-03-29T12:48:59.386Z,20.10
2018-03-29T12:51:26.874Z,19.20
2018-03-29T12:53:55.163Z,15.70
2018-03-29T12:56:29.357Z,15.70
2018-03-29T12:58:57.640Z,15.30
2018-03-29T13:01:28.825Z,15.30
2018-03-29T13:03:56.314Z,15.30
2018-03-29T13:06:25.335Z,14.60
2018-03-29T13:08:53.587Z,14.70
2018-03-29T13:11:21.093Z,14.70
2018-03-29T13:13:48.583Z,14.70
2018-03-29T13:16:16.092Z,14.70
2018-03-29T13:18:44.349Z,14.70
2018-03-29T13:21:11.865Z,14.70
2018-03-29T13:23:39.357Z,15.20
2018-03-29T13:26:06.857Z,15.90
2018-03-29T13:28:34.390Z,16.30
2018-03-29T13:31:01.888Z,16.10
2018-03-29T13:33:29.400Z,15.90
2018-03-29T13:35:56.889Z,15.50
2018-03-29T13:38:24.402Z,14.80
2018-03-29T13:40:51.888Z,14.80
2018-03-29T13:43:20.170Z,13.50
2018-03-29T13:45:47.676Z,13.40
2018-03-29T13:48:15.163Z,12.90
2018-03-29T13:50:42.674Z,12.40
2018-03-29T13:53:10.165Z,12.10
2018-03-29T13:55:37.673Z,12.90
2018-03-29T13:58:05.157Z,13.30
2018-03-29T14:00:32.660Z,12.90
2018-03-29T14:03:01.657Z,12.80
2018-03-29T14:05:29.916Z,13.30
2018-03-29T14:07:57.430Z,13.30
2018-03-29T14:10:24.934Z,13.50
2018-03-29T14:12:52.446Z,13.90
2018-03-29T14:15:19.933Z,14.40
2018-03-29T14:17:47.497Z,14.40
2018-03-29T14:20:14.949Z,14.40
2018-03-29T14:22:42.434Z,14.60
2018-03-29T14:25:10.717Z,14.40
2018-03-29T14:27:38.973Z,14.40
2018-03-29T14:30:06.492Z,14.30
2018-03-29T14:32:33.981Z,13.80
2018-03-29T14:35:01.495Z,13.20
2018-03-29T14:37:28.989Z,12.60
2018-03-29T14:39:56.511Z,12.10
2018-03-29T14:42:24.025Z,12.00
2018-03-29T14:44:51.521Z,11.80
2018-03-29T14:47:19.041Z,11.60
2018-03-29T14:49:46.524Z,11.60
2018-03-29T14:52:14.797Z,12.20
2018-03-29T14:54:43.049Z,12.20
2018-03-29T14:57:10.532Z,12.10
2018-03-29T14:59:38.810Z,11.90
2018-03-29T15:02:07.057Z,11.90
2018-03-29T15:04:34.565Z,11.90
2018-03-29T15:07:02.054Z,11.80
2018-03-29T15:09:29.574Z,11.80
2018-03-29T15:11:57.833Z,11.60
2018-03-29T15:14:26.088Z,11.50
2018-03-29T15:16:53.601Z,11.40
2018-03-29T15:19:21.085Z,11.30
2018-03-29T15:21:48.646Z,11.20
2018-03-29T15:24:16.105Z,11.10
2018-03-29T15:26:43.617Z,11.00
2018-03-29T15:29:11.872Z,10.90
2018-03-29T15:31:39.356Z,10.90
2018-03-29T15:34:06.860Z,10.90
2018-03-29T15:36:34.344Z,10.90
2018-03-29T15:39:01.858Z,10.90
2018-03-29T15:41:29.350Z,10.90
2018-03-29T15:43:57.625Z,10.80
2018-03-29T15:46:25.121Z,10.80
2018-03-29T15:48:53.377Z,10.60
2018-03-29T15:51:21.649Z,10.70
2018-03-29T15:53:49.137Z,10.70
2018-03-29T15:56:16.641Z,10.80
2018-03-29T15:58:44.120Z,10.80
2018-03-29T16:01:11.629Z,10.70
2018-03-29T16:03:39.112Z,10.70
2018-03-29T16:06:06.597Z,10.70
2018-03-29T16:08:34.109Z,10.70
2018-03-29T16:11:01.598Z,10.50
2018-03-29T16:13:29.102Z,10.40
2018-03-29T16:15:56.589Z,10.30
2018-03-29T16:18:24.092Z,10.30
2018-03-29T16:20:51.588Z,10.20
2018-03-29T16:23:19.073Z,10.20
2018-03-29T16:25:46.577Z,10.20
2018-03-29T16:28:14.825Z,10.30
2018-03-29T16:30:42.338Z,10.30
2018-03-29T16:33:09.821Z,10.30
2018-03-29T16:35:37.325Z,10.40
2018-03-29T16:38:05.580Z,10.60
2018-03-29T16:40:33.093Z,10.60
2018-03-29T16:43:00.580Z,10.70
2018-03-29T16:45:28.070Z,10.60
2018-03-29T16:47:56.340Z,10.50
2018-03-29T16:50:23.821Z,10.50
2018-03-29T16:52:51.332Z,10.50
2018-03-29T16:55:18.816Z,10.50
2018-03-29T16:57:47.084Z,10.40
2018-03-29T17:00:14.573Z,10.30
2018-03-29T17:02:42.085Z,10.30
2018-03-29T17:05:09.568Z,10.30
2018-03-29T17:07:37.053Z,10.30
2018-03-29T17:10:04.562Z,10.30
2018-03-29T17:12:32.053Z,10.20
2018-03-29T17:15:00.338Z,10.30
2018-03-29T17:17:28.593Z,10.30
2018-03-29T17:19:56.113Z,10.30
2018-03-29T17:22:23.600Z,10.20
2018-03-29T17:24:51.110Z,10.20
2018-03-29T17:27:18.601Z,10.20
2018-03-29T17:29:46.097Z,10.20
2018-03-29T17:32:14.376Z,10.00
2018-03-29T17:34:42.634Z,10.00
2018-03-29T17:37:10.145Z,9.90
2018-03-29T17:39:37.629Z,9.90
2018-03-29T17:42:05.138Z,9.90
2018-03-29T17:44:32.625Z,9.80
2018-03-29T17:47:00.130Z,9.80
2018-03-29T17:49:28.386Z,9.70
2018-03-29T17:51:55.873Z,9.70
2018-03-29T17:54:24.145Z,9.70
2018-03-29T17:56:52.401Z,9.70
2018-03-29T17:59:19.909Z,9.70
2018-03-29T18:01:47.388Z,9.60
2018-03-29T18:04:14.899Z,9.60
2018-03-29T18:06:43.153Z,9.60
2018-03-29T18:09:10.656Z,9.60
2018-03-29T18:11:38.145Z,9.60
2018-03-29T18:14:05.625Z,9.50
2018-03-29T18:16:33.135Z,9.50
2018-03-29T18:19:00.621Z,9.50
2018-03-29T18:21:28.125Z,9.40
2018-03-29T18:23:56.380Z,9.30
2018-03-29T18:26:23.886Z,9.30
2018-03-29T18:28:51.370Z,9.30
2018-03-29T18:31:18.877Z,9.10
2018-03-29T18:33:47.125Z,9.00
2018-03-29T18:36:14.611Z,9.00
2018-03-29T18:38:42.877Z,9.00
2018-03-29T18:41:11.132Z,8.90
2018-03-29T18:43:38.641Z,8.90
2018-03-29T18:46:06.121Z,8.90
2018-03-29T18:48:33.622Z,8.80
2018-03-29T18:51:01.141Z,8.70
2018-03-29T18:53:28.620Z,8.70
2018-03-29T18:55:56.101Z,8.60
2018-03-29T18:58:24.354Z,8.50
2018-03-29T19:00:51.856Z,8.50
2018-03-29T19:03:19.345Z,8.40
2018-03-29T19:05:46.852Z,8.30
2018-03-29T19:08:15.113Z,8.20
2018-03-29T19:10:42.622Z,8.10
2018-03-29T19:13:10.105Z,8.20
2018-03-29T19:15:37.590Z,8.10
2018-03-29T19:18:05.094Z,8.10
2018-03-29T19:20:32.581Z,8.00
2018-03-29T19:23:00.089Z,8.00
2018-03-29T19:25:28.345Z,8.00
2018-03-29T19:27:55.862Z,8.00
2018-03-29T19:30:23.357Z,8.00
2018-03-29T19:32:50.844Z,7.90
2018-03-29T19:35:19.118Z,7.80
2018-03-29T19:37:47.364Z,7.80
2018-03-29T19:40:15.657Z,7.80
2018-03-29T19:42:43.909Z,7.70
2018-03-29T19:45:11.420Z,7.70
2018-03-29T19:47:38.911Z,7.60
2018-03-29T19:50:06.400Z,7.60
2018-03-29T19:52:33.904Z,7.50
2018-03-29T19:55:01.402Z,7.40
2018-03-29T19:57:28.913Z,7.30
2018-03-29T19:59:56.398Z,7.20
2018-03-29T20:02:23.902Z,7.20
2018-03-29T20:04:52.149Z,7.10
2018-03-29T20:07:19.629Z,7.10
2018-03-29T20:09:47.900Z,7.00
2018-03-29T20:12:16.166Z,7.00
2018-03-29T20:14:43.674Z,6.90
2018-03-29T20:17:11.157Z,6.90
2018-03-29T20:19:38.668Z,6.90
2018-03-29T20:22:06.922Z,6.90
2018-03-29T20:24:34.404Z,6.90
2018-03-29T20:27:02.676Z,6.80
2018-03-29T20:29:30.932Z,6.80
2018-03-29T20:31:58.441Z,6.70
2018-03-29T20:34:25.929Z,6.70
2018-03-29T20:36:53.432Z,6.60
2018-03-29T20:39:21.688Z,6.50
2018-03-29T20:41:49.186Z,6.50
2018-03-29T20:44:16.697Z,6.40
2018-03-29T20:46:44.180Z,6.40
2018-03-29T20:49:12.457Z,6.30
2018-03-29T20:51:40.717Z,6.20
2018-03-29T20:54:08.226Z,6.10
2018-03-29T20:56:35.714Z,6.10
2018-03-29T20:59:03.202Z,6.10
2018-03-29T21:01:31.485Z,6.00
2018-03-29T21:03:59.744Z,6.00
2018-03-29T21:06:28.038Z,6.00
2018-03-29T21:08:56.301Z,6.00
2018-03-29T21:11:24.576Z,5.90
2018-03-29T21:13:52.833Z,5.90
2018-03-29T21:16:20.362Z,5.90
2018-03-29T21:18:47.852Z,5.90
2018-03-29T21:21:15.345Z,5.80
2018-03-29T21:23:43.625Z,5.80
2018-03-29T21:26:11.163Z,5.70
2018-03-29T21:28:38.645Z,5.70
2018-03-29T21:31:06.141Z,5.60
2018-03-29T21:33:33.629Z,5.60
2018-03-29T21:36:01.160Z,5.60
2018-03-29T21:38:28.636Z,5.60
2018-03-29T21:40:56.915Z,5.50
2018-03-29T21:43:24.403Z,5.40
2018-03-29T21:45:51.925Z,5.50
2018-03-29T21:48:19.409Z,5.40
2018-03-29T21:50:46.926Z,5.40
2018-03-29T21:53:14.437Z,5.30
2018-03-29T21:55:42.691Z,5.30
2018-03-29T21:58:10.192Z,5.20
2018-03-29T22:00:37.681Z,5.20
2018-03-29T22:03:05.233Z,5.20
2018-03-29T22:05:32.702Z,5.20
2018-03-29T22:08:00.216Z,5.20
2018-03-29T22:10:27.741Z,5.20
2018-03-29T22:12:55.249Z,5.10
2018-03-29T22:15:22.739Z,5.10
2018-03-29T22:17:50.225Z,5.00
2018-03-29T22:20:18.501Z,5.00
2018-03-29T22:22:46.769Z,4.90
2018-03-29T22:25:14.302Z,4.90
2018-03-29T22:27:41.773Z,4.90
2018-03-29T22:30:09.286Z,4.80
2018-03-29T22:32:36.769Z,4.80
2018-03-29T22:35:04.305Z,4.80
2018-03-29T22:37:31.797Z,4.70
2018-03-29T22:39:59.285Z,4.70
2018-03-29T22:42:27.553Z,4.60
2018-03-29T22:44:55.032Z,4.60
2018-03-29T22:47:23.304Z,4.60
2018-03-29T22:49:51.560Z,4.60
2018-03-29T22:52:19.073Z,4.60
2018-03-29T22:54:46.561Z,4.50
2018-03-29T22:57:14.049Z,4.50
2018-03-29T22:59:45.188Z,4.40
2018-03-29T23:02:13.439Z,4.30
2018-03-29T23:04:40.945Z,4.30
2018-03-29T23:07:08.439Z,4.30
2018-03-29T23:09:35.948Z,4.30
2018-03-29T23:12:04.196Z,4.20
2018-03-29T23:14:31.685Z,4.20
2018-03-29T23:16:59.965Z,4.10
2018-03-29T23:19:27.454Z,4.10
2018-03-29T23:21:54.964Z,4.10
2018-03-29T23:24:23.212Z,4.00
2018-03-29T23:26:50.717Z,4.00
2018-03-29T23:29:18.206Z,4.00
2018-03-29T23:31:45.689Z,4.00
2018-03-29T23:34:13.192Z,4.00
2018-03-29T23:36:40.676Z,3.90
2018-03-29T23:39:08.185Z,3.90
2018-03-29T23:41:36.440Z,3.90
2018-03-29T23:44:03.948Z,3.80
2018-03-29T23:46:31.442Z,3.90
2018-03-29T23:48:58.933Z,3.90
2018-03-29T23:51:26.441Z,3.80
2018-03-29T23:53:53.929Z,3.80
2018-03-29T23:56:21.436Z,3.80
2018-03-29T23:58:48.926Z,3.80
